sensor_id;sensor_type;location;lat;lon;timestamp;pressure;altitude;pressure_sealevel;temperature;humidity
56414;BME280;42318;48.452;19.526;2023-03-24T00:01:03;98048.25;;;18.98;49.39
56414;BME280;42318;48.452;19.526;2023-03-24T00:08:35;98041.25;;;19.07;49.58
56414;BME280;42318;48.452;19.526;2023-03-24T00:16:10;98038.88;;;19.10;49.32
56414;BME280;42318;48.452;19.526;2023-03-24T00:23:41;98054.66;;;19.13;49.42
56414;BME280;42318;48.452;19.526;2023-03-24T00:31:12;98059.56;;;19.17;49.08
56414;BME280;42318;48.452;19.526;2023-03-24T00:38:47;98043.56;;;19.20;48.97
56414;BME280;42318;48.452;19.526;2023-03-24T00:46:18;98029.47;;;19.28;48.67
56414;BME280;42318;48.452;19.526;2023-03-24T00:53:58;98013.47;;;19.32;48.64
56414;BME280;42318;48.452;19.526;2023-03-24T01:01:31;98015.16;;;19.38;48.59
56414;BME280;42318;48.452;19.526;2023-03-24T01:09:07;97995.25;;;19.27;48.67
56414;BME280;42318;48.452;19.526;2023-03-24T01:16:39;97998.47;;;19.19;48.94
56414;BME280;42318;48.452;19.526;2023-03-24T01:24:11;97998.69;;;19.12;48.96
56414;BME280;42318;48.452;19.526;2023-03-24T01:31:43;97986.41;;;19.05;49.17
56414;BME280;42318;48.452;19.526;2023-03-24T01:39:13;97981.19;;;18.98;49.21
56414;BME280;42318;48.452;19.526;2023-03-24T01:46:45;97981.19;;;18.98;49.27
56414;BME280;42318;48.452;19.526;2023-03-24T01:54:19;97994.22;;;18.96;49.32
56414;BME280;42318;48.452;19.526;2023-03-24T02:01:52;97986.91;;;18.97;49.44
56414;BME280;42318;48.452;19.526;2023-03-24T02:09:32;97983.06;;;18.93;49.37
56414;BME280;42318;48.452;19.526;2023-03-24T02:40:21;97961.88;;;18.90;49.32
56414;BME280;42318;48.452;19.526;2023-03-24T02:55:52;97968.63;;;18.87;49.37
56414;BME280;42318;48.452;19.526;2023-03-24T03:03:48;97957.78;;;18.87;49.28
56414;BME280;42318;48.452;19.526;2023-03-24T03:11:20;97946.63;;;18.83;49.52
56414;BME280;42318;48.452;19.526;2023-03-24T03:18:57;97962.09;;;18.83;49.50
56414;BME280;42318;48.452;19.526;2023-03-24T03:26:31;97946.34;;;18.80;49.32
56414;BME280;42318;48.452;19.526;2023-03-24T03:41:38;97955.56;;;18.79;49.27
56414;BME280;42318;48.452;19.526;2023-03-24T03:49:09;97950.38;;;18.77;49.43
56414;BME280;42318;48.452;19.526;2023-03-24T03:56:41;97947.94;;;18.76;49.31
56414;BME280;42318;48.452;19.526;2023-03-24T04:12:17;97931.41;;;18.77;49.34
56414;BME280;42318;48.452;19.526;2023-03-24T04:27:45;97940.50;;;19.03;48.69
56414;BME280;42318;48.452;19.526;2023-03-24T04:35:22;97927.56;;;19.16;48.41
56414;BME280;42318;48.452;19.526;2023-03-24T04:43:03;97936.31;;;19.28;48.23
56414;BME280;42318;48.452;19.526;2023-03-24T04:50:38;97927.06;;;19.24;48.23
56414;BME280;42318;48.452;19.526;2023-03-24T04:58:09;97938.47;;;19.21;48.18
56414;BME280;42318;48.452;19.526;2023-03-24T05:05:43;97936.81;;;19.20;48.51
56414;BME280;42318;48.452;19.526;2023-03-24T05:13:15;97935.22;;;19.24;48.38
56414;BME280;42318;48.452;19.526;2023-03-24T05:20:46;97953.09;;;19.14;48.73
56414;BME280;42318;48.452;19.526;2023-03-24T05:28:17;97963.34;;;19.07;48.99
56414;BME280;42318;48.452;19.526;2023-03-24T05:35:47;97958.16;;;19.06;49.17
56414;BME280;42318;48.452;19.526;2023-03-24T05:43:18;97961.47;;;19.08;48.92
56414;BME280;42318;48.452;19.526;2023-03-24T05:50:50;97968.84;;;19.12;48.49
56414;BME280;42318;48.452;19.526;2023-03-24T05:58:21;97980.16;;;19.04;49.07
56414;BME280;42318;48.452;19.526;2023-03-24T06:05:53;97973.88;;;18.99;48.83
56414;BME280;42318;48.452;19.526;2023-03-24T06:13:24;97969.25;;;18.99;48.97
56414;BME280;42318;48.452;19.526;2023-03-24T06:20:55;97967.41;;;19.05;48.87
56414;BME280;42318;48.452;19.526;2023-03-24T06:28:26;97961.50;;;19.13;48.77
56414;BME280;42318;48.452;19.526;2023-03-24T06:35:59;97955.00;;;19.19;48.54
56414;BME280;42318;48.452;19.526;2023-03-24T06:43:31;97955.81;;;19.14;48.72
56414;BME280;42318;48.452;19.526;2023-03-24T06:51:03;97950.09;;;19.11;48.61
56414;BME280;42318;48.452;19.526;2023-03-24T06:58:33;97954.69;;;19.10;48.75
56414;BME280;42318;48.452;19.526;2023-03-24T07:06:04;97962.91;;;19.21;48.48
56414;BME280;42318;48.452;19.526;2023-03-24T07:13:37;97973.53;;;19.27;48.30
56414;BME280;42318;48.452;19.526;2023-03-24T07:21:07;97973.84;;;19.36;48.25
56414;BME280;42318;48.452;19.526;2023-03-24T07:28:38;97969.47;;;19.30;48.63
56414;BME280;42318;48.452;19.526;2023-03-24T07:36:09;97966.78;;;19.40;48.21
56414;BME280;42318;48.452;19.526;2023-03-24T07:43:40;97969.50;;;19.35;48.79
56414;BME280;42318;48.452;19.526;2023-03-24T07:51:11;97954.56;;;19.37;48.79
56414;BME280;42318;48.452;19.526;2023-03-24T07:58:41;97954.53;;;19.32;48.83
56414;BME280;42318;48.452;19.526;2023-03-24T08:06:12;97943.97;;;19.36;48.68
56414;BME280;42318;48.452;19.526;2023-03-24T08:13:43;97946.94;;;19.34;49.09
56414;BME280;42318;48.452;19.526;2023-03-24T08:21:14;97941.78;;;19.33;48.92
56414;BME280;42318;48.452;19.526;2023-03-24T08:28:44;97918.13;;;19.33;48.98
56414;BME280;42318;48.452;19.526;2023-03-24T08:36:15;97902.13;;;19.37;49.04
56414;BME280;42318;48.452;19.526;2023-03-24T08:43:46;97898.88;;;19.40;49.46
56414;BME280;42318;48.452;19.526;2023-03-24T08:51:17;97905.41;;;19.44;49.49
56414;BME280;42318;48.452;19.526;2023-03-24T08:58:47;97913.84;;;19.48;49.45
56414;BME280;42318;48.452;19.526;2023-03-24T09:06:20;97889.66;;;19.46;49.56
56414;BME280;42318;48.452;19.526;2023-03-24T09:13:51;97881.50;;;19.46;49.40
56414;BME280;42318;48.452;19.526;2023-03-24T09:21:22;97872.81;;;19.44;49.49
56414;BME280;42318;48.452;19.526;2023-03-24T09:28:53;97861.41;;;19.42;49.54
56414;BME280;42318;48.452;19.526;2023-03-24T09:36:24;97855.41;;;19.40;49.30
56414;BME280;42318;48.452;19.526;2023-03-24T09:51:34;97844.00;;;19.38;49.52
56414;BME280;42318;48.452;19.526;2023-03-24T09:59:12;97829.88;;;19.36;49.37
56414;BME280;42318;48.452;19.526;2023-03-24T10:06:45;97822.25;;;19.38;49.52
56414;BME280;42318;48.452;19.526;2023-03-24T10:22:18;97815.75;;;19.44;49.51
56414;BME280;42318;48.452;19.526;2023-03-24T10:29:55;97808.69;;;19.48;49.55
56414;BME280;42318;48.452;19.526;2023-03-24T10:37:29;97800.09;;;19.56;49.38
56414;BME280;42318;48.452;19.526;2023-03-24T10:45:01;97783.50;;;19.68;49.87
56414;BME280;42318;48.452;19.526;2023-03-24T10:52:40;97779.97;;;19.62;50.04
56414;BME280;42318;48.452;19.526;2023-03-24T11:00:22;97778.34;;;19.61;49.81
56414;BME280;42318;48.452;19.526;2023-03-24T11:08:09;97775.09;;;19.59;49.57
56414;BME280;42318;48.452;19.526;2023-03-24T11:15:51;97763.66;;;19.57;49.82
56414;BME280;42318;48.452;19.526;2023-03-24T11:31:05;97744.38;;;19.54;49.55
56414;BME280;42318;48.452;19.526;2023-03-24T11:38:38;97726.72;;;19.56;49.65
56414;BME280;42318;48.452;19.526;2023-03-24T11:46:14;97712.59;;;19.59;49.57
56414;BME280;42318;48.452;19.526;2023-03-24T11:53:50;97700.09;;;19.58;49.66
56414;BME280;42318;48.452;19.526;2023-03-24T12:01:26;97696.56;;;19.58;49.61
56414;BME280;42318;48.452;19.526;2023-03-24T12:09:12;97695.72;;;19.52;49.85
56414;BME280;42318;48.452;19.526;2023-03-24T12:48:52;97661.72;;;19.50;49.88
56414;BME280;42318;48.452;19.526;2023-03-24T12:56:38;97645.16;;;19.46;49.91
56414;BME280;42318;48.452;19.526;2023-03-24T13:04:25;97643.78;;;19.49;49.86
56414;BME280;42318;48.452;19.526;2023-03-24T13:19:39;97628.88;;;19.66;49.74
56414;BME280;42318;48.452;19.526;2023-03-24T13:27:18;97632.94;;;19.79;49.64
56414;BME280;42318;48.452;19.526;2023-03-24T13:36:16;97622.91;;;19.64;49.75
56414;BME280;42318;48.452;19.526;2023-03-24T13:43:12;97616.13;;;19.57;49.91
56414;BME280;42318;48.452;19.526;2023-03-24T13:50:57;97606.56;;;19.49;50.16
56414;BME280;42318;48.452;19.526;2023-03-24T14:06:46;97591.66;;;19.52;51.03
56414;BME280;42318;48.452;19.526;2023-03-24T14:14:19;97571.25;;;19.49;50.79
56414;BME280;42318;48.452;19.526;2023-03-24T14:22:03;97581.03;;;19.50;50.88
56414;BME280;42318;48.452;19.526;2023-03-24T14:29:40;97572.63;;;19.52;50.46
56414;BME280;42318;48.452;19.526;2023-03-24T14:37:16;97563.09;;;19.49;50.66
56414;BME280;42318;48.452;19.526;2023-03-24T14:52:39;97550.06;;;19.46;50.53
56414;BME280;42318;48.452;19.526;2023-03-24T15:15:29;97521.28;;;19.40;50.42
56414;BME280;42318;48.452;19.526;2023-03-24T15:23:06;97511.22;;;19.40;50.29
56414;BME280;42318;48.452;19.526;2023-03-24T15:30:37;97510.69;;;19.38;50.29
56414;BME280;42318;48.452;19.526;2023-03-24T15:38:17;97508.53;;;19.35;50.27
56414;BME280;42318;48.452;19.526;2023-03-24T15:45:53;97510.69;;;19.38;50.44
56414;BME280;42318;48.452;19.526;2023-03-24T15:53:30;97495.47;;;19.37;50.51
56414;BME280;42318;48.452;19.526;2023-03-24T16:01:09;97504.44;;;19.38;50.29
56414;BME280;42318;48.452;19.526;2023-03-24T16:08:44;97497.91;;;19.39;50.07
56414;BME280;42318;48.452;19.526;2023-03-24T16:16:22;97499.28;;;19.41;50.13
56414;BME280;42318;48.452;19.526;2023-03-24T16:23:55;97500.63;;;19.44;50.13
56414;BME280;42318;48.452;19.526;2023-03-24T16:31:29;97489.19;;;19.47;50.04
56414;BME280;42318;48.452;19.526;2023-03-24T16:39:00;97478.34;;;19.52;49.59
56414;BME280;42318;48.452;19.526;2023-03-24T16:46:33;97474.25;;;19.50;49.86
56414;BME280;42318;48.452;19.526;2023-03-24T16:54:04;97474.81;;;19.52;50.00
56414;BME280;42318;48.452;19.526;2023-03-24T17:01:37;97479.97;;;19.58;49.85
56414;BME280;42318;48.452;19.526;2023-03-24T17:09:09;97475.53;;;19.83;49.09
56414;BME280;42318;48.452;19.526;2023-03-24T17:16:42;97469.22;;;19.97;48.67
56414;BME280;42318;48.452;19.526;2023-03-24T17:24:13;97462.16;;;19.91;48.91
56414;BME280;42318;48.452;19.526;2023-03-24T17:31:45;97476.06;;;19.85;48.91
56414;BME280;42318;48.452;19.526;2023-03-24T17:39:16;97457.09;;;19.74;49.53
56414;BME280;42318;48.452;19.526;2023-03-24T17:46:47;97457.66;;;19.66;50.09
56414;BME280;42318;48.452;19.526;2023-03-24T17:54:18;97451.44;;;19.61;49.64
56414;BME280;42318;48.452;19.526;2023-03-24T18:01:50;97450.38;;;19.57;49.86
56414;BME280;42318;48.452;19.526;2023-03-24T18:09:21;97457.19;;;19.54;49.77
56414;BME280;42318;48.452;19.526;2023-03-24T18:16:52;97461.00;;;19.53;50.18
56414;BME280;42318;48.452;19.526;2023-03-24T18:24:23;97452.84;;;19.53;49.79
56414;BME280;42318;48.452;19.526;2023-03-24T18:31:55;97453.38;;;19.55;49.75
56414;BME280;42318;48.452;19.526;2023-03-24T18:39:25;97444.38;;;19.60;49.59
56414;BME280;42318;48.452;19.526;2023-03-24T18:46:56;97448.91;;;19.80;49.16
56414;BME280;42318;48.452;19.526;2023-03-24T18:54:27;97449.75;;;19.75;49.20
56414;BME280;42318;48.452;19.526;2023-03-24T19:01:59;97453.81;;;19.77;49.37
56414;BME280;42318;48.452;19.526;2023-03-24T19:09:30;97450.88;;;19.69;49.20
56414;BME280;42318;48.452;19.526;2023-03-24T19:17:01;97454.13;;;19.66;49.50
56414;BME280;42318;48.452;19.526;2023-03-24T19:24:33;97453.34;;;19.60;49.70
56414;BME280;42318;48.452;19.526;2023-03-24T19:32:04;97454.19;;;19.56;49.84
56414;BME280;42318;48.452;19.526;2023-03-24T19:39:35;97459.09;;;19.54;49.77
56414;BME280;42318;48.452;19.526;2023-03-24T19:47:07;97458.25;;;19.58;49.78
56414;BME280;42318;48.452;19.526;2023-03-24T19:54:38;97457.66;;;19.71;49.28
56414;BME280;42318;48.452;19.526;2023-03-24T20:02:14;97455.63;;;19.92;48.93
56414;BME280;42318;48.452;19.526;2023-03-24T20:09:48;97451.00;;;19.98;48.91
56414;BME280;42318;48.452;19.526;2023-03-24T20:17:21;97442.84;;;19.93;49.06
56414;BME280;42318;48.452;19.526;2023-03-24T20:24:52;97455.63;;;19.97;49.00
56414;BME280;42318;48.452;19.526;2023-03-24T20:32:22;97461.06;;;19.97;48.92
56414;BME280;42318;48.452;19.526;2023-03-24T20:39:53;97463.81;;;19.87;49.26
56414;BME280;42318;48.452;19.526;2023-03-24T20:47:24;97473.63;;;19.83;49.48
56414;BME280;42318;48.452;19.526;2023-03-24T20:54:55;97486.16;;;19.79;49.57
56414;BME280;42318;48.452;19.526;2023-03-24T21:02:26;97472.56;;;19.79;49.32
56414;BME280;42318;48.452;19.526;2023-03-24T21:09:57;97444.84;;;19.77;49.54
56414;BME280;42318;48.452;19.526;2023-03-24T21:17:27;97450.31;;;19.72;49.57
56414;BME280;42318;48.452;19.526;2023-03-24T21:25:03;97458.19;;;19.68;49.62
56414;BME280;42318;48.452;19.526;2023-03-24T21:32:35;97451.69;;;19.64;49.89
56414;BME280;42318;48.452;19.526;2023-03-24T21:40:06;97457.69;;;19.61;49.77
56414;BME280;42318;48.452;19.526;2023-03-24T21:47:41;97429.44;;;19.57;49.68
56414;BME280;42318;48.452;19.526;2023-03-24T21:55:13;97454.19;;;19.56;49.81
56414;BME280;42318;48.452;19.526;2023-03-24T22:02:45;97444.69;;;19.53;49.76
56414;BME280;42318;48.452;19.526;2023-03-24T22:10:19;97441.41;;;19.51;49.89
56414;BME280;42318;48.452;19.526;2023-03-24T22:17:53;97432.69;;;19.49;50.13
56414;BME280;42318;48.452;19.526;2023-03-24T22:25:23;97416.66;;;19.48;50.03
56414;BME280;42318;48.452;19.526;2023-03-24T22:32:54;97401.44;;;19.46;50.09
56414;BME280;42318;48.452;19.526;2023-03-24T22:40:25;97397.38;;;19.44;49.96
56414;BME280;42318;48.452;19.526;2023-03-24T22:47:56;97375.94;;;19.42;49.89
56414;BME280;42318;48.452;19.526;2023-03-24T22:55:27;97368.59;;;19.43;50.36
56414;BME280;42318;48.452;19.526;2023-03-24T23:02:57;97371.88;;;19.40;50.31
56414;BME280;42318;48.452;19.526;2023-03-24T23:10:28;97362.09;;;19.39;49.71
56414;BME280;42318;48.452;19.526;2023-03-24T23:17:59;97370.25;;;19.39;50.15
56414;BME280;42318;48.452;19.526;2023-03-24T23:25:30;97349.34;;;19.34;50.13
56414;BME280;42318;48.452;19.526;2023-03-24T23:33:01;97340.94;;;19.36;49.94
56414;BME280;42318;48.452;19.526;2023-03-24T23:40:33;97338.50;;;19.34;50.24
56414;BME280;42318;48.452;19.526;2023-03-24T23:48:05;97342.31;;;19.33;49.83
56414;BME280;42318;48.452;19.526;2023-03-24T23:55:35;97339.59;;;19.33;50.29
